createdAt,value
2018-09-06T00:00:50.489Z,47.39
2018-09-06T00:15:50.159Z,47.36
2018-09-06T00:30:50.421Z,47.90
2018-09-06T00:45:50.667Z,47.13
2018-09-06T01:00:50.823Z,47.80
2018-09-06T01:15:50.771Z,47.81
2018-09-06T01:30:51.302Z,52.24
2018-09-06T01:45:51.056Z,51.22
2018-09-06T02:00:51.178Z,48.75
2018-09-06T02:15:50.914Z,48.82
2018-09-06T02:30:50.348Z,48.81
2018-09-06T02:45:49.716Z,47.84
2018-09-06T03:00:50.468Z,48.82
2018-09-06T03:15:50.227Z,48.24
2018-09-06T03:30:50.847Z,47.96
2018-09-06T03:45:50.907Z,48.60
2018-09-06T04:00:50.745Z,47.74
2018-09-06T04:15:51.228Z,48.17
2018-09-06T04:30:50.419Z,48.46
2018-09-06T04:45:51.306Z,47.33
2018-09-06T05:00:51.680Z,46.86
2018-09-06T05:15:50.545Z,48.88
2018-09-06T05:30:50.833Z,49.75
2018-09-06T05:45:52.631Z,49.36
2018-09-06T06:00:56.699Z,47.91
2018-09-06T06:15:50.756Z,45.61
2018-09-06T06:30:51.047Z,43.79
2018-09-06T06:45:51.701Z,45.80
2018-09-06T07:00:51.070Z,43.15
2018-09-06T07:15:51.530Z,43.87
2018-09-06T07:30:50.400Z,44.04
2018-09-06T07:45:52.500Z,42.15
2018-09-06T08:00:50.319Z,41.57
2018-09-06T08:15:50.377Z,41.41
2018-09-06T08:30:51.025Z,42.15
2018-09-06T08:45:50.821Z,39.15
2018-09-06T09:00:55.915Z,38.38
2018-09-06T09:15:50.718Z,37.90
2018-09-06T09:30:51.233Z,36.99
2018-09-06T09:45:51.132Z,36.88
2018-09-06T10:00:51.159Z,37.03
2018-09-06T10:15:51.077Z,34.38
2018-09-06T10:30:52.561Z,35.13
2018-09-06T10:45:50.631Z,33.54
2018-09-06T11:00:53.133Z,34.32
2018-09-06T11:15:50.462Z,33.54
2018-09-06T11:30:50.863Z,34.14
2018-09-06T11:45:50.339Z,32.73
2018-09-06T12:00:50.951Z,33.84
2018-09-06T12:15:50.866Z,34.76
2018-09-06T12:30:51.408Z,39.98
2018-09-06T12:45:51.244Z,42.39
2018-09-06T13:30:50.675Z,45.57
2018-09-06T13:45:51.136Z,48.88
2018-09-06T14:00:50.605Z,49.21
2018-09-06T14:15:50.578Z,46.84
2018-09-06T14:30:51.116Z,46.76
2018-09-06T14:45:51.045Z,47.69
2018-09-06T15:00:50.989Z,49.21
2018-09-06T15:15:50.998Z,49.03
2018-09-06T15:30:50.412Z,48.40
2018-09-06T15:45:52.395Z,47.90
2018-09-06T16:00:52.814Z,47.52
2018-09-06T16:15:50.363Z,49.22
2018-09-06T16:30:50.746Z,47.27
2018-09-06T16:45:50.751Z,46.92
2018-09-06T17:00:50.743Z,47.29
2018-09-06T17:15:50.213Z,47.69
2018-09-06T17:30:50.667Z,47.60
2018-09-06T17:45:50.883Z,48.13
2018-09-06T18:15:51.156Z,48.30
2018-09-06T18:30:50.568Z,48.88
2018-09-06T18:45:50.389Z,49.60
2018-09-06T19:00:51.442Z,52.06
2018-09-06T19:15:50.260Z,51.94
2018-09-06T19:30:50.709Z,49.63
2018-09-06T19:45:50.886Z,49.04
2018-09-06T20:00:50.432Z,49.18
2018-09-06T20:15:52.618Z,48.42
2018-09-06T20:30:52.074Z,49.08
2018-09-06T20:45:49.796Z,48.32
2018-09-06T21:00:51.248Z,48.50
2018-09-06T21:15:51.179Z,49.11
2018-09-06T21:30:50.368Z,49.33
2018-09-06T21:45:52.348Z,49.52
2018-09-06T22:00:50.780Z,48.88
2018-09-06T22:15:50.300Z,48.69
2018-09-06T22:30:50.776Z,49.49
2018-09-06T22:45:50.748Z,49.58
2018-09-06T23:00:50.921Z,49.84
2018-09-06T23:15:50.275Z,49.88
2018-09-06T23:45:59.141Z,49.86
